Shamrock, Texas
Current Conditions -  °F | °C
As of 5:15 AM on Thursday 25 Dec 2014 (Local Time) from KHHF Reporting Station
Clear Clear  
Wind Chill:   Ceiling: Unl
Heat Index:   Visibility: NA
Dew Point: -6°   Wind: 14mph
Humidity: 46%   Direction: 200°SSW
Pressure: 29.6"   Gusts: NA
Location:  35.21°N, 100.25°W
Report Text: KHHF 251115Z AUTO 20012KT CLR 05/M06 A2960 RMK AO2 T00471062 PWINO
Loading
Personal Weather Stations






























Interactive Weather Map New forecast layout! Learn more

10-Day Weather Forecast

Advertisements
Track Severe Weather on mobile